createdAt,value
2018-05-02T00:00:13.643Z,1.47
2018-05-02T00:02:40.674Z,1.83
2018-05-02T00:05:07.657Z,1.27
2018-05-02T00:07:34.653Z,1.60
2018-05-02T00:10:01.680Z,2.40
2018-05-02T00:12:28.674Z,1.43
2018-05-02T00:14:55.748Z,1.40
2018-05-02T00:17:22.786Z,1.90
2018-05-02T00:19:49.796Z,3.13
2018-05-02T00:22:16.780Z,2.83
2018-05-02T00:24:43.817Z,2.90
2018-05-02T00:29:52.172Z,3.78
2018-05-02T00:32:19.163Z,2.13
2018-05-02T00:34:46.156Z,3.40
2018-05-02T00:37:13.554Z,2.20
2018-05-02T00:39:40.534Z,2.20
2018-05-02T00:42:07.519Z,4.00
2018-05-02T00:44:38.102Z,2.70
2018-05-02T00:47:05.096Z,2.83
2018-05-02T00:49:32.077Z,2.13
2018-05-02T00:51:59.087Z,2.80
2018-05-02T00:54:26.072Z,5.53
2018-05-02T00:56:57.260Z,2.80
2018-05-02T00:59:27.224Z,2.93
2018-05-02T01:01:54.290Z,3.23
2018-05-02T01:04:21.270Z,1.80
2018-05-02T01:06:48.286Z,5.87
2018-05-02T01:09:15.273Z,1.83
2018-05-02T01:11:42.626Z,3.87
2018-05-02T01:14:09.298Z,4.10
2018-05-02T01:16:36.620Z,3.87
2018-05-02T01:19:03.589Z,1.77
2018-05-02T01:21:30.845Z,2.20
2018-05-02T01:23:57.837Z,2.10
2018-05-02T01:26:24.826Z,3.77
2018-05-02T01:28:51.872Z,3.47
2018-05-02T01:31:18.859Z,3.13
2018-05-02T01:33:45.863Z,1.60
2018-05-02T01:36:12.883Z,2.10
2018-05-02T01:38:39.859Z,8.00
2018-05-02T01:41:06.848Z,2.10
2018-05-02T01:46:14.831Z,4.80
2018-05-02T01:51:26.420Z,2.78
2018-05-02T01:53:53.460Z,2.40
2018-05-02T01:56:20.439Z,2.30
2018-05-02T01:58:47.431Z,2.10
2018-05-02T02:01:16.434Z,1.93
2018-05-02T02:03:41.435Z,2.10
2018-05-02T02:06:08.418Z,2.17
2018-05-02T02:08:36.169Z,3.17
2018-05-02T02:11:03.162Z,2.33
2018-05-02T02:13:30.151Z,2.10
2018-05-02T02:15:58.105Z,2.23
2018-05-02T02:18:26.026Z,3.27
2018-05-02T02:20:53.017Z,2.30
2018-05-02T02:23:20.027Z,2.23
2018-05-02T02:25:47.004Z,2.00
2018-05-02T02:28:14.804Z,2.20
2018-05-02T02:30:41.817Z,2.73
2018-05-02T02:33:08.887Z,3.03
2018-05-02T02:35:36.829Z,3.00
2018-05-02T02:38:04.805Z,2.33
2018-05-02T02:40:31.880Z,2.00
2018-05-02T02:42:58.866Z,3.27
2018-05-02T02:45:25.892Z,2.20
2018-05-02T02:47:52.880Z,3.03
2018-05-02T02:50:19.858Z,3.73
2018-05-02T02:52:48.412Z,2.53
2018-05-02T02:55:15.439Z,2.40
2018-05-02T02:57:42.386Z,3.90
2018-05-02T03:00:09.412Z,2.80
2018-05-02T03:02:36.393Z,4.03
2018-05-02T03:05:03.388Z,3.83
2018-05-02T03:07:30.401Z,4.23
2018-05-02T03:09:57.381Z,1.77
2018-05-02T03:12:24.367Z,2.30
2018-05-02T03:17:29.861Z,2.72
2018-05-02T03:19:56.877Z,3.20
2018-05-02T03:22:23.863Z,3.37
2018-05-02T03:24:50.866Z,3.10
2018-05-02T03:27:17.900Z,2.47
2018-05-02T03:29:44.880Z,2.23
2018-05-02T03:32:11.862Z,3.10
2018-05-02T03:34:38.888Z,2.20
2018-05-02T03:37:05.893Z,3.00
2018-05-02T03:39:32.961Z,3.20
2018-05-02T03:41:59.989Z,2.03
2018-05-02T03:44:26.963Z,4.77
2018-05-02T03:46:53.944Z,2.70
2018-05-02T03:49:20.966Z,5.27
2018-05-02T03:51:47.950Z,2.60
2018-05-02T03:54:14.939Z,3.13
2018-05-02T03:56:42.799Z,3.40
2018-05-02T03:59:09.784Z,5.20
2018-05-02T04:01:48.672Z,3.30
2018-05-02T04:04:27.551Z,3.70
2018-05-02T04:09:41.755Z,4.20
2018-05-02T04:12:08.803Z,2.67
2018-05-02T04:14:35.836Z,2.83
2018-05-02T04:17:02.819Z,5.40
2018-05-02T04:19:30.228Z,2.97
2018-05-02T04:21:57.216Z,5.00
2018-05-02T04:24:24.203Z,2.93
2018-05-02T04:26:51.661Z,2.97
2018-05-02T04:29:18.656Z,4.57
2018-05-02T04:31:45.642Z,2.90
2018-05-02T04:34:12.648Z,3.27
2018-05-02T04:36:39.643Z,6.47
2018-05-02T04:39:06.665Z,3.17
2018-05-02T04:41:33.699Z,3.33
2018-05-02T04:44:00.997Z,3.00
2018-05-02T04:46:28.233Z,3.27
2018-05-02T04:48:55.218Z,3.20
2018-05-02T04:51:22.194Z,2.63
2018-05-02T04:53:49.184Z,3.33
2018-05-02T04:56:17.146Z,3.70
2018-05-02T04:58:44.127Z,3.50
2018-05-02T05:01:11.933Z,4.20
2018-05-02T05:03:38.964Z,4.00
2018-05-02T05:06:05.955Z,6.67
2018-05-02T05:08:33.820Z,6.67
2018-05-02T05:11:01.671Z,3.50
2018-05-02T05:13:28.651Z,5.13
2018-05-02T05:15:55.633Z,3.77
2018-05-02T05:18:22.647Z,3.47
2018-05-02T05:20:49.633Z,4.30
2018-05-02T05:23:16.618Z,3.20
2018-05-02T05:25:43.641Z,3.47
2018-05-02T05:28:10.693Z,4.83
2018-05-02T05:30:40.322Z,4.97
2018-05-02T05:33:07.332Z,4.37
2018-05-02T05:35:34.420Z,4.57
2018-05-02T05:40:39.905Z,5.22
2018-05-02T05:45:45.008Z,5.12
2018-05-02T05:48:11.987Z,4.63
2018-05-02T05:50:38.977Z,5.43
2018-05-02T05:53:06.655Z,7.03
2018-05-02T05:55:33.640Z,4.30
2018-05-02T05:58:00.844Z,7.67
2018-05-02T06:00:27.862Z,5.97
2018-05-02T06:02:54.863Z,10.07
2018-05-02T06:05:21.826Z,4.57
2018-05-02T06:07:48.854Z,7.33
2018-05-02T06:10:15.833Z,6.17
2018-05-02T06:12:42.819Z,6.20
2018-05-02T06:15:09.836Z,7.97
2018-05-02T06:17:36.820Z,5.17
2018-05-02T06:20:03.801Z,5.80
2018-05-02T06:22:30.824Z,7.93
2018-05-02T06:24:57.816Z,7.80
2018-05-02T06:27:24.806Z,4.60
2018-05-02T06:29:51.837Z,9.83
2018-05-02T06:32:19.633Z,6.57
2018-05-02T06:34:47.544Z,9.03
2018-05-02T06:37:14.653Z,8.13
2018-05-02T06:39:41.636Z,11.60
2018-05-02T06:42:08.601Z,4.80
2018-05-02T06:44:36.438Z,5.87
2018-05-02T06:47:04.471Z,5.60
2018-05-02T06:49:31.459Z,8.07
2018-05-02T06:51:58.485Z,4.50
2018-05-02T06:54:25.474Z,5.40
2018-05-02T06:56:52.456Z,7.83
2018-05-02T06:59:19.497Z,5.53
2018-05-02T07:01:46.478Z,5.07
2018-05-02T07:04:14.271Z,5.23
2018-05-02T07:09:19.755Z,6.57
2018-05-02T07:11:46.844Z,4.73
2018-05-02T07:14:13.789Z,6.30
2018-05-02T07:16:41.592Z,6.40
2018-05-02T07:19:08.612Z,5.80
2018-05-02T07:21:35.597Z,7.20
2018-05-02T07:24:02.624Z,5.53
2018-05-02T07:26:29.591Z,5.53
2018-05-02T07:28:56.578Z,6.30
2018-05-02T07:31:23.555Z,7.53
2018-05-02T07:33:50.580Z,8.50
2018-05-02T07:36:18.395Z,6.57
2018-05-02T07:38:45.376Z,4.87
2018-05-02T07:41:12.421Z,6.87
2018-05-02T07:43:39.371Z,4.17
2018-05-02T07:46:06.731Z,5.67
2018-05-02T07:48:33.753Z,4.70
2018-05-02T07:51:00.682Z,4.10
2018-05-02T07:53:27.675Z,5.17
2018-05-02T07:55:54.713Z,5.60
2018-05-02T07:58:21.695Z,4.23
2018-05-02T08:00:48.692Z,4.07
2018-05-02T08:03:15.718Z,3.53
2018-05-02T08:05:43.660Z,9.93
2018-05-02T08:08:10.648Z,5.17
2018-05-02T08:10:37.665Z,6.87
2018-05-02T08:13:04.637Z,8.23
2018-05-02T08:15:31.622Z,4.83
2018-05-02T08:17:58.631Z,3.47
2018-05-02T08:20:25.614Z,4.30
2018-05-02T08:22:52.595Z,2.83
2018-05-02T08:25:19.607Z,3.17
2018-05-02T08:27:46.584Z,2.07
2018-05-02T08:30:14.315Z,2.13
2018-05-02T08:32:41.335Z,1.73
2018-05-02T08:37:48.819Z,2.10
2018-05-02T08:40:15.815Z,3.80
2018-05-02T08:42:42.793Z,1.70
2018-05-02T08:45:09.817Z,3.03
2018-05-02T08:47:36.808Z,0.60
2018-05-02T08:50:04.732Z,4.73
2018-05-02T08:52:31.755Z,1.70
2018-05-02T08:54:58.742Z,0.30
2018-05-02T08:57:25.806Z,0.30
2018-05-02T08:59:52.743Z,0.87
2018-05-02T09:02:19.723Z,0.63
2018-05-02T09:04:46.716Z,0.20
2018-05-02T09:07:13.727Z,0.23
2018-05-02T09:09:40.710Z,0.73
2018-05-02T09:12:07.689Z,0.40
2018-05-02T09:14:35.545Z,3.13
2018-05-02T09:17:02.509Z,0.33
2018-05-02T09:19:29.492Z,0.20
2018-05-02T09:21:57.453Z,0.53
2018-05-02T09:24:24.433Z,3.57
2018-05-02T09:26:52.143Z,2.10
2018-05-02T09:29:19.166Z,0.30
2018-05-02T09:31:46.152Z,0.83
2018-05-02T09:34:13.139Z,0.63
2018-05-02T09:36:40.151Z,0.83
2018-05-02T09:39:07.153Z,1.73
2018-05-02T09:41:34.125Z,1.93
2018-05-02T09:44:01.141Z,1.07
2018-05-02T09:46:28.128Z,0.20
2018-05-02T09:48:55.160Z,1.07
2018-05-02T09:51:22.175Z,0.43
2018-05-02T09:53:49.168Z,1.47
2018-05-02T09:56:16.143Z,0.40
2018-05-02T09:58:44.061Z,0.30
2018-05-02T10:03:49.542Z,1.00
2018-05-02T10:06:17.735Z,1.17
2018-05-02T10:08:44.712Z,0.93
2018-05-02T10:11:11.727Z,0.60
2018-05-02T10:13:38.709Z,0.47
2018-05-02T10:16:05.702Z,0.50
2018-05-02T10:18:32.794Z,0.93
2018-05-02T10:20:59.714Z,3.80
2018-05-02T10:23:26.698Z,0.40
2018-05-02T10:25:53.894Z,2.97
2018-05-02T10:28:20.714Z,0.30
2018-05-02T10:30:47.690Z,0.50
2018-05-02T10:33:15.520Z,0.20
2018-05-02T10:35:42.499Z,0.20
2018-05-02T10:38:09.567Z,0.40
2018-05-02T10:40:36.610Z,0.40
2018-05-02T10:43:03.646Z,0.30
2018-05-02T10:45:30.887Z,0.17
2018-05-02T10:47:58.814Z,0.20
2018-05-02T10:50:25.804Z,0.20
2018-05-02T10:52:52.773Z,0.30
2018-05-02T10:55:19.803Z,1.13
2018-05-02T10:57:46.787Z,0.20
2018-05-02T11:00:13.768Z,0.20
2018-05-02T11:02:40.854Z,0.77
2018-05-02T11:05:07.837Z,0.20
2018-05-02T11:07:34.815Z,0.83
2018-05-02T11:10:01.908Z,0.20
2018-05-02T11:12:28.891Z,0.30
2018-05-02T11:14:55.867Z,1.37
2018-05-02T11:17:23.685Z,1.27
2018-05-02T11:19:50.669Z,0.73
2018-05-02T11:22:18.368Z,1.47
2018-05-02T11:24:46.206Z,0.23
2018-05-02T11:29:55.553Z,0.70
2018-05-02T11:32:22.535Z,2.53
2018-05-02T11:34:50.448Z,0.43
2018-05-02T11:37:17.475Z,1.87
2018-05-02T11:39:44.460Z,1.63
2018-05-02T11:42:11.440Z,2.70
2018-05-02T11:44:39.420Z,2.70
2018-05-02T11:47:06.644Z,4.60
2018-05-02T11:49:33.625Z,4.20
2018-05-02T11:52:00.660Z,5.10
2018-05-02T11:54:27.638Z,2.33
2018-05-02T11:56:54.611Z,2.50
2018-05-02T11:59:21.631Z,5.43
2018-05-02T12:01:48.610Z,6.00
2018-05-02T12:04:15.614Z,4.03
2018-05-02T12:06:42.630Z,7.40
2018-05-02T12:09:09.605Z,5.37
2018-05-02T12:14:14.754Z,8.20
2018-05-02T12:16:41.741Z,6.60
2018-05-02T12:19:09.056Z,8.17
2018-05-02T12:21:37.167Z,9.97
2018-05-02T12:24:03.919Z,9.33
2018-05-02T12:26:31.719Z,8.60
2018-05-02T12:28:58.744Z,9.43
2018-05-02T12:31:25.727Z,8.13
2018-05-02T12:33:52.768Z,5.27
2018-05-02T12:36:20.733Z,11.33
2018-05-02T12:38:47.801Z,6.93
2018-05-02T12:41:14.778Z,8.67
2018-05-02T12:43:41.793Z,6.37
2018-05-02T12:46:08.776Z,4.17
2018-05-02T12:48:35.760Z,7.23
2018-05-02T12:51:06.014Z,5.20
2018-05-02T12:53:32.996Z,7.40
2018-05-02T12:56:00.040Z,8.40
2018-05-02T12:58:26.989Z,7.37
2018-05-02T13:00:53.985Z,10.33
2018-05-02T13:03:21.701Z,6.80
2018-05-02T13:05:49.645Z,7.53
2018-05-02T13:08:16.686Z,7.83
2018-05-02T13:10:43.612Z,7.73
2018-05-02T13:13:10.624Z,12.13
2018-05-02T13:15:37.612Z,10.93
2018-05-02T13:18:04.600Z,11.40
2018-05-02T13:20:32.556Z,9.20
2018-05-02T13:22:59.607Z,11.20
2018-05-02T13:25:26.534Z,9.97
2018-05-02T13:27:55.423Z,11.30
2018-05-02T13:32:58.495Z,8.23
2018-05-02T13:35:25.483Z,11.27
2018-05-02T13:37:52.463Z,8.67
2018-05-02T13:40:19.478Z,12.67
2018-05-02T13:42:46.557Z,10.10
2018-05-02T13:45:13.841Z,12.97
2018-05-02T13:47:40.820Z,11.57
2018-05-02T13:50:07.804Z,6.67
2018-05-02T13:52:35.541Z,10.73
2018-05-02T13:55:02.637Z,9.93
2018-05-02T13:57:29.637Z,13.23
2018-05-02T13:59:56.865Z,11.87
2018-05-02T14:02:23.872Z,18.10
2018-05-02T14:04:50.858Z,12.87
2018-05-02T14:07:17.834Z,18.00
2018-05-02T14:09:45.740Z,15.10
2018-05-02T14:12:13.539Z,18.83
2018-05-02T14:14:40.532Z,16.27
2018-05-02T14:17:07.623Z,12.20
2018-05-02T14:19:35.345Z,9.97
2018-05-02T14:22:03.155Z,13.40
2018-05-02T14:24:30.256Z,9.37
2018-05-02T14:26:58.054Z,12.03
2018-05-02T14:29:25.035Z,11.53
2018-05-02T14:31:52.061Z,8.23
2018-05-02T14:34:19.128Z,11.13
2018-05-02T14:36:46.920Z,17.97
2018-05-02T14:39:14.659Z,13.93
2018-05-02T14:41:41.649Z,11.00
2018-05-02T14:44:08.636Z,13.53
2018-05-02T14:46:35.656Z,10.83
2018-05-02T14:49:03.579Z,13.73
2018-05-02T14:51:30.796Z,10.57
2018-05-02T14:53:58.729Z,14.63
2018-05-02T14:59:04.205Z,13.30
2018-05-02T15:01:31.210Z,11.53
2018-05-02T15:03:58.170Z,15.97
2018-05-02T15:06:25.329Z,11.60
2018-05-02T15:08:52.160Z,18.77
2018-05-02T15:11:19.330Z,13.30
2018-05-02T15:13:46.170Z,9.50
2018-05-02T15:16:13.149Z,13.27
2018-05-02T15:18:40.128Z,18.80
2018-05-02T15:21:07.143Z,13.53
2018-05-02T15:23:34.934Z,8.53
2018-05-02T15:26:03.753Z,10.30
2018-05-02T15:28:30.765Z,21.07
2018-05-02T15:30:58.694Z,14.33
2018-05-02T15:33:26.492Z,12.50
2018-05-02T15:35:53.514Z,12.90
2018-05-02T15:38:20.504Z,13.00
2018-05-02T15:40:48.440Z,14.50
2018-05-02T15:43:15.464Z,7.27
2018-05-02T15:45:42.436Z,10.70
2018-05-02T15:48:10.690Z,13.27
2018-05-02T15:50:37.509Z,12.47
2018-05-02T15:53:04.485Z,13.47
2018-05-02T15:55:33.753Z,14.23
2018-05-02T15:58:01.876Z,12.00
2018-05-02T16:00:28.837Z,9.43
2018-05-02T16:02:55.854Z,15.13
2018-05-02T16:05:22.870Z,15.67
2018-05-02T16:07:49.869Z,12.33
2018-05-02T16:10:16.866Z,13.17
2018-05-02T16:12:43.893Z,10.10
2018-05-02T16:15:12.841Z,15.00
2018-05-02T16:17:39.830Z,10.30
2018-05-02T16:20:06.848Z,19.10
2018-05-02T16:25:12.335Z,11.80
2018-05-02T16:27:39.411Z,11.30
2018-05-02T16:30:06.339Z,15.00
2018-05-02T16:32:33.367Z,18.07
2018-05-02T16:35:00.437Z,10.47
2018-05-02T16:37:27.429Z,13.00
2018-05-02T16:39:54.439Z,11.83
2018-05-02T16:42:21.423Z,10.27
2018-05-02T16:44:48.681Z,9.43
2018-05-02T16:47:15.649Z,16.60
2018-05-02T16:49:42.635Z,16.73
2018-05-02T16:52:09.617Z,12.70
2018-05-02T16:54:36.639Z,11.87
2018-05-02T16:57:03.621Z,18.30
2018-05-02T16:59:30.688Z,13.07
2018-05-02T17:01:58.636Z,15.23
2018-05-02T17:04:25.696Z,9.10
2018-05-02T17:06:52.613Z,13.57
2018-05-02T17:09:19.638Z,14.97
2018-05-02T17:14:24.816Z,17.90
2018-05-02T17:16:51.876Z,13.50
2018-05-02T17:19:18.789Z,9.77
2018-05-02T17:21:45.795Z,11.63
2018-05-02T17:24:12.788Z,12.77
2018-05-02T17:26:39.796Z,13.73
2018-05-02T17:29:06.818Z,11.57
2018-05-02T17:31:33.799Z,15.37
2018-05-02T17:34:00.783Z,8.37
2018-05-02T17:36:27.804Z,6.67
2018-05-02T17:38:54.784Z,12.40
2018-05-02T17:41:22.721Z,15.97
2018-05-02T17:43:49.752Z,10.63
2018-05-02T17:46:16.733Z,11.53
2018-05-02T17:48:43.778Z,15.83
2018-05-02T17:51:10.801Z,7.50
2018-05-02T17:53:37.965Z,11.07
2018-05-02T17:56:04.916Z,13.50
2018-05-02T17:58:32.951Z,11.50
2018-05-02T18:00:59.908Z,8.67
2018-05-02T18:03:26.884Z,11.97
2018-05-02T18:05:53.910Z,8.97
2018-05-02T18:08:21.048Z,16.33
2018-05-02T18:10:48.007Z,7.37
2018-05-02T18:13:15.084Z,12.43
2018-05-02T18:15:42.027Z,10.27
2018-05-02T18:18:09.023Z,15.17
2018-05-02T18:20:36.043Z,15.93
2018-05-02T18:23:03.037Z,13.57
2018-05-02T18:25:30.241Z,11.17
2018-05-02T18:27:57.323Z,9.63
2018-05-02T18:30:24.236Z,11.53
2018-05-02T18:32:51.300Z,10.93
2018-05-02T18:35:18.272Z,11.07
2018-05-02T18:37:46.620Z,11.27
2018-05-02T18:42:53.005Z,13.98
2018-05-02T18:45:19.984Z,11.13
2018-05-02T18:47:46.969Z,9.13
2018-05-02T18:50:13.994Z,10.50
2018-05-02T18:52:40.993Z,11.50
2018-05-02T18:55:07.961Z,15.47
2018-05-02T18:57:34.975Z,10.27
2018-05-02T19:00:01.960Z,14.53
2018-05-02T19:02:28.950Z,15.10
2018-05-02T19:04:55.977Z,10.30
2018-05-02T19:07:22.965Z,10.93
2018-05-02T19:09:49.958Z,12.57
2018-05-02T19:14:55.917Z,15.88
2018-05-02T19:17:22.945Z,12.17
2018-05-02T19:19:49.937Z,9.17
2018-05-02T19:22:16.906Z,15.03
2018-05-02T19:24:43.917Z,15.87
2018-05-02T19:27:10.945Z,6.93
2018-05-02T19:29:41.262Z,11.70
2018-05-02T19:32:08.204Z,13.47
2018-05-02T19:34:35.199Z,8.57
2018-05-02T19:37:02.240Z,10.60
2018-05-02T19:39:29.251Z,11.63
2018-05-02T19:41:56.264Z,5.93
2018-05-02T19:44:23.436Z,14.33
2018-05-02T19:46:50.385Z,10.23
2018-05-02T19:49:17.378Z,7.80
2018-05-02T19:51:44.388Z,14.47
2018-05-02T19:54:11.424Z,7.63
2018-05-02T19:59:16.636Z,6.28
2018-05-02T20:01:43.629Z,9.13
2018-05-02T20:04:10.641Z,6.73
2018-05-02T20:06:37.684Z,6.27
2018-05-02T20:11:42.805Z,11.00
2018-05-02T20:14:09.788Z,6.63
2018-05-02T20:16:36.771Z,5.93
2018-05-02T20:19:03.847Z,6.23
2018-05-02T20:21:30.782Z,9.07
2018-05-02T20:23:57.758Z,13.63
2018-05-02T20:26:24.771Z,5.07
2018-05-02T20:28:51.759Z,8.57
2018-05-02T20:31:18.743Z,7.13
2018-05-02T20:33:45.770Z,5.43
2018-05-02T20:36:12.750Z,4.33
2018-05-02T20:38:39.764Z,5.90
2018-05-02T20:41:06.863Z,10.03
2018-05-02T20:43:33.805Z,5.83
2018-05-02T20:46:00.874Z,8.17
2018-05-02T20:48:27.894Z,6.87
2018-05-02T20:50:54.888Z,5.70
2018-05-02T20:53:21.904Z,5.17
2018-05-02T20:55:48.930Z,10.30
2018-05-02T20:58:16.025Z,5.27
2018-05-02T21:00:43.008Z,4.33
2018-05-02T21:03:10.045Z,7.60
2018-05-02T21:05:37.056Z,10.53
2018-05-02T21:08:04.066Z,5.33
2018-05-02T21:10:31.159Z,7.67
2018-05-02T21:12:58.138Z,11.80
2018-05-02T21:15:25.113Z,5.80
2018-05-02T21:17:52.135Z,7.03
2018-05-02T21:20:19.112Z,7.30
2018-05-02T21:22:46.102Z,5.17
2018-05-02T21:25:13.368Z,4.40
2018-05-02T21:27:40.313Z,9.13
2018-05-02T21:30:07.316Z,4.23
2018-05-02T21:35:12.830Z,8.15
2018-05-02T21:37:39.868Z,4.93
2018-05-02T21:40:06.851Z,5.53
2018-05-02T21:42:33.835Z,4.60
2018-05-02T21:45:00.854Z,4.33
2018-05-02T21:47:27.858Z,4.57
2018-05-02T21:49:54.834Z,6.47
2018-05-02T21:52:21.853Z,6.13
2018-05-02T21:54:50.854Z,4.80
2018-05-02T21:57:19.288Z,6.20
2018-05-02T21:59:46.436Z,6.83
2018-05-02T22:02:15.443Z,4.80
2018-05-02T22:04:42.320Z,4.43
2018-05-02T22:07:09.348Z,4.07
2018-05-02T22:09:36.325Z,3.93
2018-05-02T22:12:03.304Z,4.60
2018-05-02T22:14:30.315Z,5.73
2018-05-02T22:17:08.014Z,3.93
2018-05-02T22:22:08.332Z,5.10
2018-05-02T22:27:14.065Z,6.75
2018-05-02T22:29:42.745Z,5.20
2018-05-02T22:32:10.171Z,4.90
2018-05-02T22:37:17.670Z,6.62
2018-05-02T22:39:45.885Z,8.70
2018-05-02T22:42:12.879Z,7.20
2018-05-02T22:44:39.911Z,5.50
2018-05-02T22:47:07.835Z,6.20
2018-05-02T22:49:34.822Z,6.37
2018-05-02T22:52:01.834Z,8.87
2018-05-02T22:54:31.593Z,7.77
2018-05-02T22:56:55.803Z,5.30
2018-05-02T22:59:22.840Z,7.23
2018-05-02T23:01:49.824Z,7.30
2018-05-02T23:04:16.801Z,7.10
2018-05-02T23:06:43.875Z,8.80
2018-05-02T23:09:10.795Z,9.93
2018-05-02T23:11:37.778Z,5.77
2018-05-02T23:14:04.803Z,7.27
2018-05-02T23:16:31.769Z,7.27
2018-05-02T23:18:58.748Z,7.93
2018-05-02T23:21:25.963Z,6.67
2018-05-02T23:23:53.665Z,9.40
2018-05-02T23:26:20.977Z,6.50
2018-05-02T23:28:48.000Z,5.60
2018-05-02T23:31:14.991Z,5.40
2018-05-02T23:33:44.333Z,4.93
2018-05-02T23:36:10.050Z,4.83
2018-05-02T23:38:37.867Z,8.17
2018-05-02T23:41:04.943Z,6.07
2018-05-02T23:43:31.958Z,9.33
2018-05-02T23:45:58.945Z,4.47
2018-05-02T23:48:25.923Z,4.87
2018-05-02T23:50:52.947Z,5.27
2018-05-02T23:53:19.929Z,6.23
2018-05-02T23:55:46.910Z,8.70
